Carnforth, United Kingdom
Current Conditions -  °F | °C
As of 8:50 AM on Friday 31 Oct 2014 (Local Time) from EGNO Reporting Station
Few Clouds Few Clouds  
Wind Chill: 61°   Ceiling: Unl
Heat Index: 61°   Visibility: 5mi
Dew Point: 57°   Wind: 14mph
Humidity: 88%   Direction: 150°SSE
Pressure: 29.85"   Gusts: NA
Location:  54.12°N, 2.77°W
Report Text: EGNO 310850Z 15012KT 8000 FEW032 16/14 Q1011
Loading
Personal Weather Stations






























Interactive Weather Map
Tropical Storm Tracking
New forecast layout! Learn more

10-Day Weather Forecast

Advertisements
Track Severe Weather on mobile